Herschel, Canada
Current Conditions -  °F | °C
As of 6:00 AM on Monday 22 Dec 2014 (Local Time) from CYKY Reporting Station
Overcast Overcast  
Wind Chill: 12°   Ceiling: 1500
Heat Index: 21°   Visibility: 12mi
Dew Point: 19°   Wind: 8mph
Humidity: 93%   Direction: 310°NW
Pressure: 29.65"   Gusts: NA
Location:  51.63°N, 108.35°W
Report Text: CYKY 221200Z 31007KT 12SM OVC015 M06/M07 A2965 RMK SC8 /S01/ SNW CVR/MUCH LOOSE SLP077
Loading
Personal Weather Stations






























Interactive Weather Map New forecast layout! Learn more

10-Day Weather Forecast

Advertisements
Track Severe Weather on mobile